createdAt,value
2023-01-15T00:00:13.340Z,99.90
2023-01-15T00:02:41.990Z,99.90
2023-01-15T00:05:10.263Z,99.90
2023-01-15T00:07:39.549Z,99.90
2023-01-15T00:10:11.682Z,99.90
2023-01-15T00:12:42.229Z,99.90
2023-01-15T00:15:14.498Z,99.90
2023-01-15T00:17:43.921Z,99.90
2023-01-15T00:20:13.028Z,99.90
2023-01-15T00:22:42.619Z,99.90
2023-01-15T00:25:30.893Z,99.90
2023-01-15T00:28:02.015Z,99.90
2023-01-15T00:30:30.133Z,99.90
2023-01-15T00:33:00.683Z,99.90
2023-01-15T00:35:30.006Z,99.90
2023-01-15T00:38:00.254Z,99.90
2023-01-15T00:40:30.996Z,99.90
2023-01-15T00:43:01.627Z,99.90
2023-01-15T00:45:31.014Z,99.90
2023-01-15T00:47:59.112Z,99.90
2023-01-15T00:50:28.116Z,99.90
2023-01-15T00:52:57.458Z,99.90
2023-01-15T00:55:26.150Z,99.90
2023-01-15T00:57:58.061Z,99.90
2023-01-15T01:00:27.407Z,99.90
2023-01-15T01:02:57.844Z,99.90
2023-01-15T01:05:25.975Z,99.90
2023-01-15T01:07:54.321Z,99.90
2023-01-15T01:10:22.497Z,99.90
2023-01-15T01:12:53.499Z,99.90
2023-01-15T01:15:25.728Z,99.90
2023-01-15T01:17:56.294Z,99.90
2023-01-15T01:20:24.502Z,99.90
2023-01-15T01:22:53.807Z,99.90
2023-01-15T01:25:21.978Z,99.90
2023-01-15T01:27:52.644Z,99.90
2023-01-15T01:30:21.936Z,99.90
2023-01-15T01:32:52.541Z,99.90
2023-01-15T01:40:24.177Z,99.90
2023-01-15T01:42:53.463Z,99.90
2023-01-15T01:45:26.864Z,99.90
2023-01-15T01:48:02.674Z,99.90
2023-01-15T01:50:33.009Z,99.90
2023-01-15T01:53:08.491Z,99.90
2023-01-15T01:55:38.715Z,99.90
2023-01-15T01:58:12.994Z,99.90
2023-01-15T02:00:46.094Z,99.90
2023-01-15T02:03:21.317Z,1.00
2023-01-15T02:05:54.921Z,99.90
2023-01-15T02:08:24.227Z,1.00
2023-01-15T02:10:55.888Z,1.00
2023-01-15T02:13:39.878Z,1.00
2023-01-15T02:16:16.630Z,99.90
2023-01-15T02:18:57.764Z,1.00
2023-01-15T02:21:41.021Z,1.00
2023-01-15T02:24:25.839Z,1.00
2023-01-15T02:27:16.065Z,1.00
2023-01-15T02:29:58.988Z,99.90
2023-01-15T02:32:36.121Z,1.00
2023-01-15T02:35:14.025Z,1.00
2023-01-15T02:37:52.130Z,1.00
2023-01-15T02:40:24.702Z,1.00
2023-01-15T02:42:56.506Z,1.00
2023-01-15T02:45:28.228Z,1.00
2023-01-15T02:48:07.557Z,1.00
2023-01-15T02:50:41.733Z,1.00
2023-01-15T02:53:18.407Z,1.00
2023-01-15T02:55:51.653Z,1.00
2023-01-15T02:58:33.441Z,1.00
2023-01-15T03:01:11.159Z,1.00
2023-01-15T03:03:50.932Z,1.00
2023-01-15T03:06:28.608Z,1.00
2023-01-15T03:08:58.812Z,1.00
2023-01-15T03:14:09.608Z,1.00
2023-01-15T03:16:46.561Z,1.00
2023-01-15T03:19:27.904Z,1.00
2023-01-15T03:22:08.143Z,1.00
2023-01-15T03:24:43.313Z,1.00
2023-01-15T03:27:13.648Z,1.00
2023-01-15T03:29:52.672Z,1.00
2023-01-15T03:32:22.070Z,1.00
2023-01-15T03:34:54.789Z,1.00
2023-01-15T03:37:27.357Z,1.00
2023-01-15T03:40:00.801Z,1.00
2023-01-15T03:42:46.613Z,1.00
2023-01-15T03:45:27.046Z,1.00
2023-01-15T03:48:03.871Z,1.00
2023-01-15T03:50:43.773Z,1.00
2023-01-15T03:53:23.074Z,1.00
2023-01-15T03:56:03.113Z,1.00
2023-01-15T03:58:42.854Z,1.00
2023-01-15T04:01:19.783Z,1.00
2023-01-15T04:03:52.247Z,1.00
2023-01-15T04:06:27.367Z,1.00
2023-01-15T04:08:57.558Z,1.00
2023-01-15T04:11:27.981Z,1.00
2023-01-15T04:16:39.245Z,1.00
2023-01-15T04:19:09.129Z,99.90
2023-01-15T04:21:42.294Z,99.90
2023-01-15T04:26:41.212Z,99.90
2023-01-15T04:29:10.520Z,99.90
2023-01-15T04:31:40.116Z,99.90
2023-01-15T04:34:09.480Z,99.90
2023-01-15T04:36:38.976Z,99.90
2023-01-15T04:39:07.487Z,99.90
2023-01-15T04:41:53.119Z,99.90
2023-01-15T04:44:21.140Z,99.90
2023-01-15T04:46:51.740Z,99.90
2023-01-15T04:49:21.224Z,99.90
2023-01-15T04:51:49.304Z,99.90
2023-01-15T04:54:21.529Z,99.90
2023-01-15T04:56:52.616Z,99.90
2023-01-15T04:59:25.566Z,99.90
2023-01-15T05:02:06.271Z,99.90
2023-01-15T05:04:36.642Z,99.90
2023-01-15T05:07:07.009Z,99.90
2023-01-15T05:09:36.600Z,99.90
2023-01-15T05:12:07.005Z,99.90
2023-01-15T05:14:36.298Z,99.90
2023-01-15T05:17:06.852Z,99.90
2023-01-15T05:19:36.105Z,99.90
2023-01-15T05:22:05.345Z,99.90
2023-01-15T05:24:35.818Z,99.90
2023-01-15T05:27:06.174Z,99.90
2023-01-15T05:29:35.455Z,99.90
2023-01-15T05:32:03.765Z,99.90
2023-01-15T05:34:34.412Z,99.90
2023-01-15T05:37:03.729Z,99.90
2023-01-15T05:39:33.007Z,99.90
2023-01-15T05:42:02.168Z,99.90
2023-01-15T05:44:31.435Z,99.90
2023-01-15T05:47:03.208Z,99.90
2023-01-15T05:49:34.073Z,99.90
2023-01-15T05:52:03.684Z,99.90
2023-01-15T05:54:35.059Z,99.90
2023-01-15T05:57:05.074Z,99.90
2023-01-15T05:59:35.977Z,99.90
2023-01-15T06:02:04.311Z,99.90
2023-01-15T06:04:36.422Z,99.90
2023-01-15T06:07:05.277Z,99.90
2023-01-15T06:09:33.329Z,99.90
2023-01-15T06:12:02.572Z,99.90
2023-01-15T06:14:30.647Z,99.90
2023-01-15T06:16:59.923Z,99.90
2023-01-15T06:19:27.984Z,99.90
2023-01-15T06:21:57.337Z,99.90
2023-01-15T06:24:26.700Z,99.90
2023-01-15T06:26:54.774Z,99.90
2023-01-15T06:31:51.330Z,99.90
2023-01-15T06:34:20.737Z,95.90
2023-01-15T06:36:48.869Z,86.90
2023-01-15T06:39:19.481Z,73.90
2023-01-15T06:42:06.519Z,54.30
2023-01-15T06:44:53.453Z,53.80
2023-01-15T06:47:23.233Z,21.90
2023-01-15T06:49:56.203Z,53.50
2023-01-15T06:52:27.627Z,27.70
2023-01-15T06:54:57.445Z,53.20
2023-01-15T06:57:26.668Z,53.20
2023-01-15T07:02:24.405Z,53.10
2023-01-15T07:04:54.862Z,53.10
2023-01-15T07:07:23.611Z,53.10
2023-01-15T07:09:51.859Z,30.60
2023-01-15T07:12:23.299Z,53.00
2023-01-15T07:17:38.527Z,53.40
2023-01-15T07:20:08.765Z,53.20
2023-01-15T07:22:37.996Z,53.10
2023-01-15T07:25:10.851Z,44.00
2023-01-15T07:27:40.167Z,25.90
2023-01-15T07:30:11.349Z,17.90
2023-01-15T07:32:40.676Z,8.30
2023-01-15T07:35:11.345Z,1.00
2023-01-15T07:37:40.601Z,1.00
2023-01-15T07:40:12.174Z,1.00
2023-01-15T07:42:59.079Z,1.00
2023-01-15T07:45:46.682Z,1.00
2023-01-15T07:48:32.502Z,1.00
2023-01-15T07:51:03.420Z,1.00
2023-01-15T07:53:32.629Z,1.00
2023-01-15T07:56:02.069Z,1.00
2023-01-15T07:58:32.615Z,1.00
2023-01-15T08:01:02.050Z,1.00
2023-01-15T08:06:01.393Z,1.00
2023-01-15T08:11:22.275Z,1.00
2023-01-15T08:14:09.788Z,1.00
2023-01-15T08:16:40.313Z,1.00
2023-01-15T08:19:08.364Z,1.00
2023-01-15T08:21:37.658Z,1.00
2023-01-15T08:24:07.586Z,1.00
2023-01-15T08:26:36.884Z,1.00
2023-01-15T08:29:07.518Z,1.00
2023-01-15T08:31:38.158Z,1.00
2023-01-15T08:34:06.243Z,1.00
2023-01-15T08:39:04.722Z,1.00
2023-01-15T08:41:34.415Z,1.00
2023-01-15T08:46:34.133Z,1.00
2023-01-15T08:51:31.809Z,1.00
2023-01-15T08:54:01.118Z,1.00
2023-01-15T08:56:29.232Z,1.00
2023-01-15T08:58:57.328Z,1.00
2023-01-15T09:01:27.865Z,1.00
2023-01-15T09:03:58.152Z,1.00
2023-01-15T09:06:27.690Z,1.00
2023-01-15T09:08:56.917Z,1.00
2023-01-15T09:11:26.558Z,1.00
2023-01-15T09:13:54.661Z,1.00
2023-01-15T09:16:26.636Z,1.00
2023-01-15T09:18:57.268Z,1.00
2023-01-15T09:26:31.380Z,1.00
2023-01-15T09:29:02.299Z,1.00
2023-01-15T09:31:32.275Z,1.00
2023-01-15T09:34:03.049Z,1.00
2023-01-15T09:36:35.298Z,1.00
2023-01-15T09:39:05.289Z,1.00
2023-01-15T09:42:08.106Z,1.00
2023-01-15T09:45:00.121Z,1.00
2023-01-15T09:47:36.842Z,1.00
2023-01-15T09:50:26.951Z,1.00
2023-01-15T09:53:25.194Z,1.00
2023-01-15T09:55:57.008Z,1.00
2023-01-15T09:58:35.270Z,1.00
2023-01-15T10:01:05.384Z,1.00
2023-01-15T10:03:43.091Z,1.00
2023-01-15T10:06:22.025Z,1.00
2023-01-15T10:08:52.361Z,1.00
2023-01-15T10:11:46.593Z,1.00
2023-01-15T10:14:26.443Z,1.00
2023-01-15T10:19:31.913Z,1.00
2023-01-15T10:22:19.119Z,1.00
2023-01-15T10:24:56.797Z,1.00
2023-01-15T10:27:31.278Z,1.00
2023-01-15T10:30:07.463Z,1.00
2023-01-15T10:33:01.646Z,1.00
2023-01-15T10:35:45.987Z,1.00
2023-01-15T10:38:25.955Z,1.00
2023-01-15T10:41:26.486Z,1.00
2023-01-15T10:44:02.636Z,1.00
2023-01-15T10:46:39.460Z,1.00
2023-01-15T10:49:16.492Z,1.00
2023-01-15T10:51:47.560Z,1.00
2023-01-15T10:54:27.601Z,1.00
2023-01-15T10:57:10.975Z,1.00
2023-01-15T10:59:46.291Z,1.00
2023-01-15T11:02:27.275Z,1.00
2023-01-15T11:04:55.906Z,1.00
2023-01-15T11:07:33.501Z,1.00
2023-01-15T11:10:07.753Z,1.00
2023-01-15T11:12:57.141Z,1.00
2023-01-15T11:15:46.306Z,1.00
2023-01-15T11:18:40.827Z,1.00
2023-01-15T11:21:16.209Z,1.00
2023-01-15T11:23:45.383Z,1.00
2023-01-15T11:26:24.874Z,1.00
2023-01-15T11:28:54.695Z,1.00
2023-01-15T11:31:24.321Z,1.00
2023-01-15T11:34:01.182Z,1.00
2023-01-15T11:36:33.709Z,1.00
2023-01-15T11:39:01.937Z,1.00
2023-01-15T11:41:50.709Z,1.00
2023-01-15T11:44:37.975Z,1.00
2023-01-15T11:47:30.256Z,1.00
2023-01-15T11:50:16.257Z,1.00
2023-01-15T11:52:51.046Z,1.00
2023-01-15T11:55:22.262Z,1.00
2023-01-15T11:57:54.429Z,1.00
2023-01-15T12:00:26.897Z,1.00
2023-01-15T12:03:01.380Z,1.00
2023-01-15T12:05:32.753Z,1.00
2023-01-15T12:08:11.801Z,1.00
2023-01-15T12:11:21.316Z,1.00
2023-01-15T12:14:20.054Z,1.00
2023-01-15T12:16:56.882Z,1.00
2023-01-15T12:19:36.819Z,1.00
2023-01-15T12:22:23.803Z,1.00
2023-01-15T12:25:18.422Z,1.00
2023-01-15T12:28:03.306Z,1.00
2023-01-15T12:30:43.143Z,1.00
2023-01-15T12:33:29.610Z,1.00
2023-01-15T12:36:04.463Z,1.00
2023-01-15T12:38:52.048Z,1.00
2023-01-15T12:41:50.035Z,1.00
2023-01-15T12:44:47.046Z,1.00
2023-01-15T12:47:23.617Z,1.00
2023-01-15T12:49:58.725Z,1.00
2023-01-15T12:52:35.246Z,1.00
2023-01-15T12:55:15.486Z,1.00
2023-01-15T12:57:48.032Z,1.00
2023-01-15T13:00:22.543Z,1.00
2023-01-15T13:03:10.427Z,1.00
2023-01-15T13:05:47.596Z,1.00
2023-01-15T13:08:27.147Z,1.00
2023-01-15T13:13:29.970Z,1.00
2023-01-15T13:16:15.415Z,1.00
2023-01-15T13:19:00.427Z,1.00
2023-01-15T13:21:35.519Z,1.00
2023-01-15T13:24:24.295Z,1.00
2023-01-15T13:27:17.641Z,1.00
2023-01-15T13:30:05.925Z,1.00
2023-01-15T13:32:37.225Z,1.00
2023-01-15T13:35:15.495Z,1.00
2023-01-15T13:37:49.399Z,1.00
2023-01-15T13:40:26.489Z,1.00
2023-01-15T13:42:58.257Z,1.00
2023-01-15T13:45:37.804Z,1.00
2023-01-15T13:48:13.166Z,1.00
2023-01-15T13:50:52.250Z,1.00
2023-01-15T13:53:30.436Z,1.00
2023-01-15T13:56:05.366Z,1.00
2023-01-15T13:58:40.239Z,1.00
2023-01-15T14:01:27.410Z,1.00
2023-01-15T14:04:09.160Z,1.00
2023-01-15T14:06:46.125Z,1.00
2023-01-15T14:09:29.484Z,1.00
2023-01-15T14:12:14.497Z,1.00
2023-01-15T14:15:02.650Z,1.00
2023-01-15T14:18:05.611Z,1.00
2023-01-15T14:20:55.986Z,1.00
2023-01-15T14:23:46.019Z,1.00
2023-01-15T14:26:25.521Z,1.00
2023-01-15T14:29:26.066Z,1.00
2023-01-15T14:32:10.592Z,1.00
2023-01-15T14:34:39.392Z,1.00
2023-01-15T14:37:25.448Z,1.00
2023-01-15T14:39:59.915Z,1.00
2023-01-15T14:42:49.878Z,1.00
2023-01-15T14:45:26.944Z,1.00
2023-01-15T14:47:56.675Z,1.00
2023-01-15T14:50:42.025Z,1.00
2023-01-15T14:53:32.059Z,1.00
2023-01-15T14:56:12.892Z,1.00
2023-01-15T14:58:59.665Z,1.00
2023-01-15T15:01:37.098Z,1.00
2023-01-15T15:04:23.447Z,1.00
2023-01-15T15:06:57.287Z,1.00
2023-01-15T15:09:37.376Z,1.00
2023-01-15T15:12:24.849Z,1.00
2023-01-15T15:15:02.864Z,1.00
2023-01-15T15:17:45.513Z,1.00
2023-01-15T15:20:32.409Z,1.00
2023-01-15T15:23:13.009Z,1.00
2023-01-15T15:25:43.990Z,1.00
2023-01-15T15:28:15.796Z,1.00
2023-01-15T15:30:47.141Z,1.00
2023-01-15T15:33:22.277Z,1.00
2023-01-15T15:35:55.983Z,1.00
2023-01-15T15:38:27.626Z,1.00
2023-01-15T15:40:59.317Z,1.00
2023-01-15T15:43:57.268Z,1.00
2023-01-15T15:46:45.978Z,1.00
2023-01-15T15:49:17.359Z,1.00
2023-01-15T15:51:49.583Z,1.00
2023-01-15T15:54:21.892Z,1.00
2023-01-15T15:56:57.659Z,1.00
2023-01-15T15:59:36.679Z,1.00
2023-01-15T16:02:20.535Z,1.00
2023-01-15T16:04:51.920Z,1.00
2023-01-15T16:07:27.708Z,1.00
2023-01-15T16:10:01.468Z,1.00
2023-01-15T16:12:36.103Z,1.00
2023-01-15T16:15:08.569Z,1.00
2023-01-15T16:17:41.445Z,1.00
2023-01-15T16:20:16.395Z,1.00
2023-01-15T16:22:47.272Z,1.00
2023-01-15T16:25:25.999Z,1.00
2023-01-15T16:27:55.406Z,1.00
2023-01-15T16:30:25.462Z,1.00
2023-01-15T16:32:57.757Z,1.00
2023-01-15T16:35:27.134Z,1.00
2023-01-15T16:37:58.641Z,1.00
2023-01-15T16:40:31.636Z,1.00
2023-01-15T16:43:10.041Z,1.00
2023-01-15T16:45:58.534Z,1.00
2023-01-15T16:48:29.964Z,1.00
2023-01-15T16:53:37.924Z,1.00
2023-01-15T16:56:07.926Z,1.00
2023-01-15T16:58:39.816Z,1.00
2023-01-15T17:01:35.811Z,1.00
2023-01-15T17:04:16.187Z,1.00
2023-01-15T17:06:45.501Z,1.00
2023-01-15T17:09:16.036Z,1.00
2023-01-15T17:11:51.699Z,1.00
2023-01-15T17:14:24.181Z,1.00
2023-01-15T17:17:18.531Z,1.00
2023-01-15T17:19:49.408Z,1.00
2023-01-15T17:22:27.506Z,1.00
2023-01-15T17:24:58.937Z,1.00
2023-01-15T17:27:30.328Z,1.00
2023-01-15T17:29:59.537Z,1.00
2023-01-15T17:32:37.260Z,1.00
2023-01-15T17:35:08.902Z,1.00
2023-01-15T17:37:38.131Z,1.00
2023-01-15T17:40:07.937Z,1.00
2023-01-15T17:42:37.235Z,1.00
2023-01-15T17:45:05.989Z,1.00
2023-01-15T17:47:36.677Z,1.00
2023-01-15T17:50:08.091Z,1.00
2023-01-15T17:52:37.333Z,1.00
2023-01-15T17:55:26.907Z,1.00
2023-01-15T18:01:01.423Z,1.00
2023-01-15T18:03:49.569Z,1.00
2023-01-15T18:06:20.960Z,1.00
2023-01-15T18:08:58.092Z,1.00
2023-01-15T18:11:27.596Z,1.00
2023-01-15T18:13:57.197Z,1.00
2023-01-15T18:16:27.171Z,1.00
2023-01-15T18:18:57.972Z,1.00
2023-01-15T18:21:27.574Z,1.00
2023-01-15T18:24:00.269Z,1.00
2023-01-15T18:26:28.328Z,1.00
2023-01-15T18:28:58.783Z,1.00
2023-01-15T18:33:59.150Z,1.00
2023-01-15T18:36:27.278Z,1.00
2023-01-15T18:39:03.441Z,1.00
2023-01-15T18:44:40.856Z,1.00
2023-01-15T18:47:13.260Z,1.00
2023-01-15T18:49:45.944Z,1.00
2023-01-15T18:52:34.917Z,1.00
2023-01-15T18:57:34.835Z,1.00
2023-01-15T19:00:04.458Z,1.00
2023-01-15T19:05:02.408Z,1.00
2023-01-15T19:10:02.519Z,1.00
2023-01-15T19:12:31.791Z,1.00
2023-01-15T19:15:19.755Z,1.00
2023-01-15T19:18:05.339Z,1.00
2023-01-15T19:20:36.024Z,1.00
2023-01-15T19:23:06.794Z,1.00
2023-01-15T19:25:42.658Z,1.00
2023-01-15T19:28:16.976Z,1.00
2023-01-15T19:31:07.470Z,1.00
2023-01-15T19:33:36.286Z,1.00
2023-01-15T19:36:07.251Z,1.00
2023-01-15T19:38:39.287Z,1.00
2023-01-15T19:41:25.680Z,1.00
2023-01-15T19:44:12.867Z,1.00
2023-01-15T19:46:58.679Z,1.00
2023-01-15T19:49:45.014Z,1.00
2023-01-15T19:52:32.798Z,1.00
2023-01-15T19:55:03.409Z,1.00
2023-01-15T19:57:31.583Z,1.00
2023-01-15T20:00:00.908Z,1.00
2023-01-15T20:02:29.131Z,1.00
2023-01-15T20:04:58.651Z,1.00
2023-01-15T20:07:29.568Z,1.00
2023-01-15T20:09:58.891Z,1.00
2023-01-15T20:12:51.404Z,1.00
2023-01-15T20:15:22.166Z,1.00
2023-01-15T20:17:50.323Z,1.00
2023-01-15T20:22:49.964Z,1.00
2023-01-15T20:27:49.232Z,1.00
2023-01-15T20:30:21.521Z,1.00
2023-01-15T20:32:49.683Z,1.00
2023-01-15T20:35:20.946Z,1.00
2023-01-15T20:37:52.427Z,1.00
2023-01-15T20:40:24.914Z,1.00
2023-01-15T20:43:12.979Z,1.00
2023-01-15T20:45:42.533Z,1.00
2023-01-15T20:48:29.431Z,1.00
2023-01-15T20:53:35.782Z,1.00
2023-01-15T20:56:13.503Z,1.00
2023-01-15T20:58:44.783Z,1.00
2023-01-15T21:01:13.201Z,1.00
2023-01-15T21:03:44.132Z,1.00
2023-01-15T21:08:47.209Z,1.00
2023-01-15T21:11:17.284Z,1.00
2023-01-15T21:13:47.000Z,1.00
2023-01-15T21:16:16.498Z,1.00
2023-01-15T21:18:47.569Z,1.00
2023-01-15T21:21:20.881Z,1.00
2023-01-15T21:23:51.566Z,1.00
2023-01-15T21:26:21.027Z,1.00
2023-01-15T21:28:54.637Z,1.00
2023-01-15T21:31:24.352Z,1.00
2023-01-15T21:33:55.693Z,1.00
2023-01-15T21:36:24.795Z,1.00
2023-01-15T21:38:58.039Z,1.00
2023-01-15T21:41:42.247Z,1.00
2023-01-15T21:44:34.098Z,1.00
2023-01-15T21:47:04.349Z,1.00
2023-01-15T21:49:34.982Z,1.00
2023-01-15T21:52:08.447Z,1.00
2023-01-15T21:54:41.653Z,1.00
2023-01-15T21:57:10.183Z,1.00
2023-01-15T21:59:39.963Z,1.00
2023-01-15T22:02:15.312Z,1.00
2023-01-15T22:04:45.762Z,1.00
2023-01-15T22:07:16.730Z,1.00
2023-01-15T22:09:46.259Z,1.00
2023-01-15T22:12:15.600Z,1.00
2023-01-15T22:14:46.332Z,1.00
2023-01-15T22:17:14.412Z,1.00
2023-01-15T22:19:43.717Z,1.00
2023-01-15T22:22:13.005Z,1.00
2023-01-15T22:24:43.560Z,1.00
2023-01-15T22:29:47.446Z,1.00
2023-01-15T22:32:16.232Z,1.00
2023-01-15T22:34:45.816Z,1.00
2023-01-15T22:37:15.845Z,1.00
2023-01-15T22:42:27.259Z,1.00
2023-01-15T22:47:28.660Z,1.00
2023-01-15T22:52:27.325Z,1.00
2023-01-15T22:54:56.975Z,1.00
2023-01-15T22:57:26.690Z,1.00
2023-01-15T23:05:10.777Z,1.00
2023-01-15T23:07:41.575Z,1.00
2023-01-15T23:10:13.619Z,1.00
2023-01-15T23:12:44.361Z,1.00
2023-01-15T23:15:17.120Z,1.00
2023-01-15T23:20:17.327Z,1.00
2023-01-15T23:25:16.266Z,1.00
2023-01-15T23:27:45.649Z,1.00
2023-01-15T23:30:16.989Z,1.00
2023-01-15T23:35:14.695Z,1.00
2023-01-15T23:37:42.776Z,1.00
2023-01-15T23:40:14.860Z,1.00
2023-01-15T23:43:03.255Z,1.00
2023-01-15T23:48:21.203Z,1.00
2023-01-15T23:50:50.526Z,1.00
2023-01-15T23:55:49.425Z,1.00
2023-01-15T23:58:20.033Z,1.00
